sensor_id;sensor_type;location;lat;lon;timestamp;pressure;altitude;pressure_sealevel;temperature;humidity
69318;BME280;56457;52.190;4.440;2022-12-07T00:00:08;101963.22;;;7.03;100.00
69318;BME280;56457;52.190;4.440;2022-12-07T00:02:11;101957.31;;;7.10;100.00
69318;BME280;56457;52.190;4.440;2022-12-07T00:03:11;101958.94;;;7.06;100.00
69318;BME280;56457;52.190;4.440;2022-12-07T00:04:13;101968.59;;;7.09;100.00
69318;BME280;56457;52.190;4.440;2022-12-07T00:05:13;101960.75;;;7.09;100.00
69318;BME280;56457;52.190;4.440;2022-12-07T00:06:14;101963.31;;;7.07;100.00
69318;BME280;56457;52.190;4.440;2022-12-07T00:07:14;101953.75;;;7.08;100.00
69318;BME280;56457;52.190;4.440;2022-12-07T00:08:15;101952.94;;;7.09;100.00
69318;BME280;56457;52.190;4.440;2022-12-07T00:09:16;101945.94;;;7.08;100.00
69318;BME280;56457;52.190;4.440;2022-12-07T00:10:17;101949.38;;;7.07;100.00
69318;BME280;56457;52.190;4.440;2022-12-07T00:11:18;101950.97;;;7.00;100.00
69318;BME280;56457;52.190;4.440;2022-12-07T00:12:19;101950.09;;;6.99;100.00
69318;BME280;56457;52.190;4.440;2022-12-07T00:13:19;101956.97;;;6.96;100.00
69318;BME280;56457;52.190;4.440;2022-12-07T00:14:20;101955.97;;;6.91;100.00
69318;BME280;56457;52.190;4.440;2022-12-07T00:15:20;101954.25;;;6.91;100.00
69318;BME280;56457;52.190;4.440;2022-12-07T00:16:21;101944.56;;;6.87;100.00
69318;BME280;56457;52.190;4.440;2022-12-07T00:17:21;101947.13;;;6.84;100.00
69318;BME280;56457;52.190;4.440;2022-12-07T00:18:22;101949.72;;;6.84;100.00
69318;BME280;56457;52.190;4.440;2022-12-07T00:19:22;101953.19;;;6.83;100.00
69318;BME280;56457;52.190;4.440;2022-12-07T00:20:22;101949.63;;;6.81;100.00
69318;BME280;56457;52.190;4.440;2022-12-07T00:21:24;101941.78;;;6.80;100.00
69318;BME280;56457;52.190;4.440;2022-12-07T00:22:24;101939.13;;;6.78;100.00
69318;BME280;56457;52.190;4.440;2022-12-07T00:23:25;101938.19;;;6.76;100.00
69318;BME280;56457;52.190;4.440;2022-12-07T00:24:25;101943.34;;;6.73;100.00
69318;BME280;56457;52.190;4.440;2022-12-07T00:25:25;101944.28;;;6.77;100.00
69318;BME280;56457;52.190;4.440;2022-12-07T00:26:27;101950.69;;;6.89;100.00
69318;BME280;56457;52.190;4.440;2022-12-07T00:27:27;101948.25;;;6.95;100.00
69318;BME280;56457;52.190;4.440;2022-12-07T00:28:28;101951.69;;;6.94;100.00
69318;BME280;56457;52.190;4.440;2022-12-07T00:29:28;101949.03;;;6.91;100.00
69318;BME280;56457;52.190;4.440;2022-12-07T00:30:28;101951.63;;;6.91;100.00
69318;BME280;56457;52.190;4.440;2022-12-07T00:31:30;101938.75;;;6.97;100.00
69318;BME280;56457;52.190;4.440;2022-12-07T00:32:31;101950.84;;;6.95;100.00
69318;BME280;56457;52.190;4.440;2022-12-07T00:33:31;101948.19;;;6.92;100.00
69318;BME280;56457;52.190;4.440;2022-12-07T00:34:32;101949.59;;;6.80;100.00
69318;BME280;56457;52.190;4.440;2022-12-07T00:35:32;101957.41;;;6.78;100.00
69318;BME280;56457;52.190;4.440;2022-12-07T00:36:32;101953.78;;;6.73;100.00
69318;BME280;56457;52.190;4.440;2022-12-07T00:37:33;101950.19;;;6.69;100.00
69318;BME280;56457;52.190;4.440;2022-12-07T00:38:33;101945.78;;;6.67;100.00
69318;BME280;56457;52.190;4.440;2022-12-07T00:39:34;101934.50;;;6.66;100.00
69318;BME280;56457;52.190;4.440;2022-12-07T00:40:34;101933.75;;;6.72;100.00
69318;BME280;56457;52.190;4.440;2022-12-07T00:41:35;101928.56;;;6.72;100.00
69318;BME280;56457;52.190;4.440;2022-12-07T00:42:35;101926.81;;;6.72;100.00
69318;BME280;56457;52.190;4.440;2022-12-07T00:43:35;101923.41;;;6.75;100.00
69318;BME280;56457;52.190;4.440;2022-12-07T00:44:35;101924.22;;;6.72;100.00
69318;BME280;56457;52.190;4.440;2022-12-07T00:45:36;101925.09;;;6.73;100.00
69318;BME280;56457;52.190;4.440;2022-12-07T00:46:36;101932.09;;;6.75;100.00
69318;BME280;56457;52.190;4.440;2022-12-07T00:47:36;101931.31;;;6.78;100.00
69318;BME280;56457;52.190;4.440;2022-12-07T00:48:37;101932.16;;;6.77;100.00
69318;BME280;56457;52.190;4.440;2022-12-07T00:49:37;101931.25;;;6.77;100.00
69318;BME280;56457;52.190;4.440;2022-12-07T00:50:37;101933.91;;;6.78;100.00
69318;BME280;56457;52.190;4.440;2022-12-07T00:51:37;101932.94;;;6.74;100.00
69318;BME280;56457;52.190;4.440;2022-12-07T00:52:38;101939.84;;;6.72;100.00
69318;BME280;56457;52.190;4.440;2022-12-07T00:53:38;101932.00;;;6.71;100.00
69318;BME280;56457;52.190;4.440;2022-12-07T00:54:39;101934.69;;;6.74;100.00
69318;BME280;56457;52.190;4.440;2022-12-07T00:55:39;101939.00;;;6.73;100.00
69318;BME280;56457;52.190;4.440;2022-12-07T00:56:40;101941.75;;;6.78;100.00
69318;BME280;56457;52.190;4.440;2022-12-07T00:57:40;101930.47;;;6.79;100.00
69318;BME280;56457;52.190;4.440;2022-12-07T00:58:40;101943.66;;;6.85;100.00
69318;BME280;56457;52.190;4.440;2022-12-07T00:59:40;101935.75;;;6.82;100.00
69318;BME280;56457;52.190;4.440;2022-12-07T01:00:41;101941.84;;;6.83;100.00
69318;BME280;56457;52.190;4.440;2022-12-07T01:01:42;101939.19;;;6.81;100.00
69318;BME280;56457;52.190;4.440;2022-12-07T01:02:42;101934.78;;;6.77;100.00
69318;BME280;56457;52.190;4.440;2022-12-07T01:03:42;101938.88;;;6.69;100.00
69318;BME280;56457;52.190;4.440;2022-12-07T01:04:43;101941.44;;;6.66;100.00
69318;BME280;56457;52.190;4.440;2022-12-07T01:05:50;101937.16;;;6.69;100.00
69318;BME280;56457;52.190;4.440;2022-12-07T01:06:54;101929.44;;;6.72;100.00
69318;BME280;56457;52.190;4.440;2022-12-07T01:07:54;101938.97;;;6.72;100.00
69318;BME280;56457;52.190;4.440;2022-12-07T01:08:54;101929.44;;;6.72;100.00
69318;BME280;56457;52.190;4.440;2022-12-07T01:09:55;101930.28;;;6.71;100.00
69318;BME280;56457;52.190;4.440;2022-12-07T01:11:02;101931.09;;;6.70;100.00
69318;BME280;56457;52.190;4.440;2022-12-07T01:12:03;101931.19;;;6.73;100.00
69318;BME280;56457;52.190;4.440;2022-12-07T01:13:03;101935.44;;;6.70;100.00
69318;BME280;56457;52.190;4.440;2022-12-07T01:14:03;101932.88;;;6.71;100.00
69318;BME280;56457;52.190;4.440;2022-12-07T01:15:04;101931.19;;;6.73;100.00
69318;BME280;56457;52.190;4.440;2022-12-07T01:16:05;101930.28;;;6.71;100.00
69318;BME280;56457;52.190;4.440;2022-12-07T01:17:05;101937.13;;;6.68;100.00
69318;BME280;56457;52.190;4.440;2022-12-07T01:18:06;101942.34;;;6.68;100.00
69318;BME280;56457;52.190;4.440;2022-12-07T01:19:06;101944.19;;;6.72;100.00
69318;BME280;56457;52.190;4.440;2022-12-07T01:20:06;101944.34;;;6.78;100.00
69318;BME280;56457;52.190;4.440;2022-12-07T01:21:11;101946.97;;;6.78;100.00
69318;BME280;56457;52.190;4.440;2022-12-07T01:22:11;101941.78;;;6.80;100.00
69318;BME280;56457;52.190;4.440;2022-12-07T01:23:11;101954.06;;;6.84;100.00
69318;BME280;56457;52.190;4.440;2022-12-07T01:24:12;101948.78;;;6.82;100.00
69318;BME280;56457;52.190;4.440;2022-12-07T01:25:12;101951.31;;;6.79;100.00
69318;BME280;56457;52.190;4.440;2022-12-07T01:26:14;101947.00;;;6.80;100.00
69318;BME280;56457;52.190;4.440;2022-12-07T01:27:15;101950.63;;;6.86;100.00
69318;BME280;56457;52.190;4.440;2022-12-07T01:28:15;101939.34;;;6.87;100.00
69318;BME280;56457;52.190;4.440;2022-12-07T01:29:15;101950.81;;;6.94;100.00
69318;BME280;56457;52.190;4.440;2022-12-07T01:30:15;101942.19;;;6.96;100.00
69318;BME280;56457;52.190;4.440;2022-12-07T01:31:17;101944.97;;;7.03;100.00
69318;BME280;56457;52.190;4.440;2022-12-07T01:32:17;101943.22;;;7.03;100.00
69318;BME280;56457;52.190;4.440;2022-12-07T01:33:18;101939.81;;;7.06;100.00
69318;BME280;56457;52.190;4.440;2022-12-07T01:34:18;101937.16;;;7.04;100.00
69318;BME280;56457;52.190;4.440;2022-12-07T01:35:18;101942.34;;;7.03;100.00
69318;BME280;56457;52.190;4.440;2022-12-07T01:37:19;101936.28;;;7.04;100.00
69318;BME280;56457;52.190;4.440;2022-12-07T01:38:19;101941.47;;;7.02;100.00
69318;BME280;56457;52.190;4.440;2022-12-07T01:39:19;101938.81;;;7.00;100.00
69318;BME280;56457;52.190;4.440;2022-12-07T01:40:19;101943.09;;;6.97;100.00
69318;BME280;56457;52.190;4.440;2022-12-07T01:41:20;101943.03;;;6.95;100.00
69318;BME280;56457;52.190;4.440;2022-12-07T01:42:20;101937.75;;;6.92;100.00
69318;BME280;56457;52.190;4.440;2022-12-07T01:43:21;101931.66;;;6.92;100.00
69318;BME280;56457;52.190;4.440;2022-12-07T01:44:29;101932.50;;;6.91;100.00
69318;BME280;56457;52.190;4.440;2022-12-07T01:45:34;101939.31;;;6.86;100.00
69318;BME280;56457;52.190;4.440;2022-12-07T01:46:37;101931.47;;;6.84;100.00
69318;BME280;56457;52.190;4.440;2022-12-07T01:47:37;101934.06;;;6.84;100.00
69318;BME280;56457;52.190;4.440;2022-12-07T01:48:38;101932.38;;;6.86;100.00
69318;BME280;56457;52.190;4.440;2022-12-07T01:49:41;101935.69;;;6.79;100.00
69318;BME280;56457;52.190;4.440;2022-12-07T01:50:43;101933.84;;;6.77;100.00
69318;BME280;56457;52.190;4.440;2022-12-07T01:51:45;101932.97;;;6.76;100.00
69318;BME280;56457;52.190;4.440;2022-12-07T01:52:46;101932.06;;;6.74;100.00
69318;BME280;56457;52.190;4.440;2022-12-07T01:53:49;101931.22;;;6.75;100.00
69318;BME280;56457;52.190;4.440;2022-12-07T01:54:51;101930.34;;;6.74;100.00
69318;BME280;56457;52.190;4.440;2022-12-07T01:55:53;101925.06;;;6.71;100.00
69318;BME280;56457;52.190;4.440;2022-12-07T01:56:55;101931.16;;;6.72;100.00
69318;BME280;56457;52.190;4.440;2022-12-07T01:57:56;101932.03;;;6.72;100.00
69318;BME280;56457;52.190;4.440;2022-12-07T01:58:57;101939.84;;;6.72;100.00
69318;BME280;56457;52.190;4.440;2022-12-07T01:59:58;101939.72;;;6.68;100.00
69318;BME280;56457;52.190;4.440;2022-12-07T02:00:59;101940.56;;;6.65;100.00
69318;BME280;56457;52.190;4.440;2022-12-07T02:02:00;101942.28;;;6.65;100.00
69318;BME280;56457;52.190;4.440;2022-12-07T02:03:07;101930.91;;;6.63;100.00
69318;BME280;56457;52.190;4.440;2022-12-07T02:04:09;101927.41;;;6.62;100.00
69318;BME280;56457;52.190;4.440;2022-12-07T02:05:10;101934.50;;;6.66;100.00
69318;BME280;56457;52.190;4.440;2022-12-07T02:06:11;101930.22;;;6.70;100.00
69318;BME280;56457;52.190;4.440;2022-12-07T02:07:12;101922.47;;;6.73;100.00
69318;BME280;56457;52.190;4.440;2022-12-07T02:08:12;101925.97;;;6.73;100.00
69318;BME280;56457;52.190;4.440;2022-12-07T02:09:13;101923.50;;;6.78;100.00
69318;BME280;56457;52.190;4.440;2022-12-07T02:11:14;101926.16;;;6.81;100.00
69318;BME280;56457;52.190;4.440;2022-12-07T02:12:16;101918.34;;;6.81;100.00
69318;BME280;56457;52.190;4.440;2022-12-07T02:13:21;101924.56;;;6.88;100.00
69318;BME280;56457;52.190;4.440;2022-12-07T02:14:23;101922.22;;;6.97;100.00
69318;BME280;56457;52.190;4.440;2022-12-07T02:17:14;101927.47;;;6.98;100.00
69318;BME280;56457;52.190;4.440;2022-12-07T02:18:22;101945.63;;;6.95;100.00
69318;BME280;56457;52.190;4.440;2022-12-07T02:19:42;101932.81;;;6.70;100.00
69318;BME280;56457;52.190;4.440;2022-12-07T02:20:51;101921.91;;;6.52;100.00
69318;BME280;56457;52.190;4.440;2022-12-07T02:24:15;101910.69;;;6.53;100.00
69318;BME280;56457;52.190;4.440;2022-12-07T02:27:59;101913.16;;;6.48;100.00
69318;BME280;56457;52.190;4.440;2022-12-07T02:30:07;101918.25;;;6.43;100.00
69318;BME280;56457;52.190;4.440;2022-12-07T02:31:10;101913.13;;;6.46;100.00
69318;BME280;56457;52.190;4.440;2022-12-07T02:32:20;101913.13;;;6.46;100.00
69318;BME280;56457;52.190;4.440;2022-12-07T02:34:38;101919.28;;;6.50;100.00
69318;BME280;56457;52.190;4.440;2022-12-07T02:36:01;101914.09;;;6.52;100.00
69318;BME280;56457;52.190;4.440;2022-12-07T02:37:03;101913.28;;;6.53;100.00
69318;BME280;56457;52.190;4.440;2022-12-07T02:39:15;101917.72;;;6.57;100.00
69318;BME280;56457;52.190;4.440;2022-12-07T02:40:18;101914.25;;;6.58;100.00
69318;BME280;56457;52.190;4.440;2022-12-07T02:41:40;101922.19;;;6.62;100.00
69318;BME280;56457;52.190;4.440;2022-12-07T02:42:44;101918.03;;;6.69;100.00
69318;BME280;56457;52.190;4.440;2022-12-07T02:43:54;101917.25;;;6.73;100.00
69318;BME280;56457;52.190;4.440;2022-12-07T02:44:55;101919.03;;;6.74;100.00
69318;BME280;56457;52.190;4.440;2022-12-07T02:45:58;101919.88;;;6.73;100.00
69318;BME280;56457;52.190;4.440;2022-12-07T02:47:01;101923.41;;;6.75;100.00
69318;BME280;56457;52.190;4.440;2022-12-07T02:48:03;101920.03;;;6.79;100.00
69318;BME280;56457;52.190;4.440;2022-12-07T02:49:05;101926.03;;;6.77;100.00
69318;BME280;56457;52.190;4.440;2022-12-07T02:50:07;101920.03;;;6.79;100.00
69318;BME280;56457;52.190;4.440;2022-12-07T02:51:07;101924.38;;;6.79;100.00
69318;BME280;56457;52.190;4.440;2022-12-07T02:52:07;101922.53;;;6.76;100.00
69318;BME280;56457;52.190;4.440;2022-12-07T02:53:27;101920.81;;;6.77;100.00
69318;BME280;56457;52.190;4.440;2022-12-07T02:54:28;101922.59;;;6.78;100.00
69318;BME280;56457;52.190;4.440;2022-12-07T02:55:36;101924.44;;;6.82;100.00
69318;BME280;56457;52.190;4.440;2022-12-07T02:58:44;101918.00;;;7.02;100.00
69318;BME280;56457;52.190;4.440;2022-12-07T03:00:09;101915.22;;;6.96;100.00
69318;BME280;56457;52.190;4.440;2022-12-07T03:01:16;101920.53;;;7.00;100.00
69318;BME280;56457;52.190;4.440;2022-12-07T03:02:26;101919.53;;;6.95;100.00
69318;BME280;56457;52.190;4.440;2022-12-07T03:03:27;101907.31;;;6.93;100.00
69318;BME280;56457;52.190;4.440;2022-12-07T03:05:53;101907.13;;;6.85;100.00
69318;BME280;56457;52.190;4.440;2022-12-07T03:07:00;101909.72;;;6.84;100.00
69318;BME280;56457;52.190;4.440;2022-12-07T03:08:06;101915.81;;;6.84;100.00
69318;BME280;56457;52.190;4.440;2022-12-07T03:09:13;101918.34;;;6.83;100.00
69318;BME280;56457;52.190;4.440;2022-12-07T03:11:23;101910.53;;;6.83;100.00
69318;BME280;56457;52.190;4.440;2022-12-07T03:12:34;101916.72;;;6.86;100.00
69318;BME280;56457;52.190;4.440;2022-12-07T03:13:45;101912.31;;;6.84;100.00
69318;BME280;56457;52.190;4.440;2022-12-07T03:14:49;101911.53;;;6.88;100.00
69318;BME280;56457;52.190;4.440;2022-12-07T03:16:00;101914.22;;;6.91;100.00
69318;BME280;56457;52.190;4.440;2022-12-07T03:17:07;101905.75;;;7.01;100.00
69318;BME280;56457;52.190;4.440;2022-12-07T03:18:10;101904.88;;;7.00;100.00
69318;BME280;56457;52.190;4.440;2022-12-07T03:19:13;101908.34;;;6.99;100.00
69318;BME280;56457;52.190;4.440;2022-12-07T03:20:16;101904.03;;;7.01;100.00
69318;BME280;56457;52.190;4.440;2022-12-07T03:21:20;101902.13;;;6.94;100.00
69318;BME280;56457;52.190;4.440;2022-12-07T03:22:22;101900.41;;;6.95;100.00
69318;BME280;56457;52.190;4.440;2022-12-07T03:23:23;101903.22;;;7.03;100.00
69318;BME280;56457;52.190;4.440;2022-12-07T03:24:26;101898.78;;;7.00;100.00
69318;BME280;56457;52.190;4.440;2022-12-07T03:25:27;101894.44;;;7.00;100.00
69318;BME280;56457;52.190;4.440;2022-12-07T03:26:30;101896.19;;;7.00;100.00
69318;BME280;56457;52.190;4.440;2022-12-07T03:27:32;101897.06;;;7.00;100.00
69318;BME280;56457;52.190;4.440;2022-12-07T03:28:35;101900.50;;;6.98;100.00
69318;BME280;56457;52.190;4.440;2022-12-07T03:29:38;101897.06;;;7.00;100.00
69318;BME280;56457;52.190;4.440;2022-12-07T03:30:54;101897.91;;;6.99;100.00
69318;BME280;56457;52.190;4.440;2022-12-07T03:32:30;101897.84;;;6.96;100.00
69318;BME280;56457;52.190;4.440;2022-12-07T03:33:31;101892.56;;;6.95;100.00
69318;BME280;56457;52.190;4.440;2022-12-07T03:34:34;101891.78;;;6.97;100.00
69318;BME280;56457;52.190;4.440;2022-12-07T03:36:45;101887.59;;;7.06;100.00
69318;BME280;56457;52.190;4.440;2022-12-07T03:38:49;101885.81;;;7.03;100.00
69318;BME280;56457;52.190;4.440;2022-12-07T03:41:04;101889.94;;;6.93;100.00
69318;BME280;56457;52.190;4.440;2022-12-07T03:42:07;101888.22;;;6.95;100.00
69318;BME280;56457;52.190;4.440;2022-12-07T03:43:08;101888.19;;;6.94;100.00
69318;BME280;56457;52.190;4.440;2022-12-07T03:44:08;101888.22;;;6.95;100.00
69318;BME280;56457;52.190;4.440;2022-12-07T03:45:09;101886.47;;;6.94;100.00
69318;BME280;56457;52.190;4.440;2022-12-07T03:46:20;101887.31;;;6.93;100.00
69318;BME280;56457;52.190;4.440;2022-12-07T03:47:27;101884.81;;;6.96;100.00
69318;BME280;56457;52.190;4.440;2022-12-07T03:48:42;101883.25;;;7.05;100.00
69318;BME280;56457;52.190;4.440;2022-12-07T03:49:49;101884.16;;;7.07;100.00
69318;BME280;56457;52.190;4.440;2022-12-07T03:53:25;101896.44;;;7.11;100.00
69318;BME280;56457;52.190;4.440;2022-12-07T03:54:30;101896.56;;;7.17;100.00
69318;BME280;56457;52.190;4.440;2022-12-07T03:55:34;101886.00;;;7.11;100.00
69318;BME280;56457;52.190;4.440;2022-12-07T03:56:35;101895.38;;;7.03;100.00
69318;BME280;56457;52.190;4.440;2022-12-07T03:57:36;101892.63;;;6.96;100.00
69318;BME280;56457;52.190;4.440;2022-12-07T03:58:38;101896.72;;;6.87;100.00
69318;BME280;56457;52.190;4.440;2022-12-07T03:59:39;101875.66;;;6.78;100.00
69318;BME280;56457;52.190;4.440;2022-12-07T04:00:41;101891.06;;;6.68;100.00
69318;BME280;56457;52.190;4.440;2022-12-07T04:01:43;101897.09;;;6.66;100.00
69318;BME280;56457;52.190;4.440;2022-12-07T04:02:43;101889.16;;;6.61;100.00
69318;BME280;56457;52.190;4.440;2022-12-07T04:03:44;101884.81;;;6.62;100.00
69318;BME280;56457;52.190;4.440;2022-12-07T04:04:44;101880.56;;;6.65;100.00
69318;BME280;56457;52.190;4.440;2022-12-07T04:05:44;101865.06;;;6.71;100.00
69318;BME280;56457;52.190;4.440;2022-12-07T04:06:45;101859.03;;;6.74;100.00
69318;BME280;56457;52.190;4.440;2022-12-07T04:07:45;101866.00;;;6.75;100.00
69318;BME280;56457;52.190;4.440;2022-12-07T04:08:45;101864.25;;;6.74;100.00
69318;BME280;56457;52.190;4.440;2022-12-07T04:09:46;101868.84;;;6.84;100.00
69318;BME280;56457;52.190;4.440;2022-12-07T04:10:46;101866.25;;;6.84;100.00
69318;BME280;56457;52.190;4.440;2022-12-07T04:11:46;101866.16;;;6.81;100.00
69318;BME280;56457;52.190;4.440;2022-12-07T04:12:47;101864.50;;;6.83;100.00
69318;BME280;56457;52.190;4.440;2022-12-07T04:13:47;101868.78;;;6.81;100.00
69318;BME280;56457;52.190;4.440;2022-12-07T04:15:06;101869.75;;;6.86;100.00
69318;BME280;56457;52.190;4.440;2022-12-07T04:16:06;101866.25;;;6.84;100.00
69318;BME280;56457;52.190;4.440;2022-12-07T04:17:08;101869.72;;;6.83;100.00
69318;BME280;56457;52.190;4.440;2022-12-07T04:18:08;101868.84;;;6.84;100.00
69318;BME280;56457;52.190;4.440;2022-12-07T04:19:08;101866.97;;;6.79;100.00
69318;BME280;56457;52.190;4.440;2022-12-07T04:20:09;101867.88;;;6.79;100.00
69318;BME280;56457;52.190;4.440;2022-12-07T04:21:09;101876.59;;;6.81;100.00
69318;BME280;56457;52.190;4.440;2022-12-07T04:22:10;101879.22;;;6.83;100.00
69318;BME280;56457;52.190;4.440;2022-12-07T04:23:10;101872.31;;;6.83;100.00
69318;BME280;56457;52.190;4.440;2022-12-07T04:24:11;101867.09;;;6.83;100.00
69318;BME280;56457;52.190;4.440;2022-12-07T04:25:11;101867.91;;;6.82;100.00
69318;BME280;56457;52.190;4.440;2022-12-07T04:26:12;101871.34;;;6.80;100.00
69318;BME280;56457;52.190;4.440;2022-12-07T04:27:12;101869.56;;;6.77;100.00
69318;BME280;56457;52.190;4.440;2022-12-07T04:28:12;101867.78;;;6.76;100.00
69318;BME280;56457;52.190;4.440;2022-12-07T04:29:13;101873.00;;;6.76;100.00
69318;BME280;56457;52.190;4.440;2022-12-07T04:30:13;101874.63;;;6.71;100.00
69318;BME280;56457;52.190;4.440;2022-12-07T04:31:14;101874.56;;;6.69;100.00
69318;BME280;56457;52.190;4.440;2022-12-07T04:32:14;101875.38;;;6.67;100.00
69318;BME280;56457;52.190;4.440;2022-12-07T04:33:14;101884.00;;;6.64;100.00
69318;BME280;56457;52.190;4.440;2022-12-07T04:34:14;101883.13;;;6.64;100.00
69318;BME280;56457;52.190;4.440;2022-12-07T04:35:15;101882.22;;;6.62;100.00
69318;BME280;56457;52.190;4.440;2022-12-07T04:36:15;101878.75;;;6.63;100.00
69318;BME280;56457;52.190;4.440;2022-12-07T04:37:15;101881.31;;;6.61;100.00
69318;BME280;56457;52.190;4.440;2022-12-07T04:38:17;101884.84;;;6.63;100.00
69318;BME280;56457;52.190;4.440;2022-12-07T04:39:21;101877.00;;;6.62;100.00
69318;BME280;56457;52.190;4.440;2022-12-07T04:40:22;101885.13;;;6.74;100.00
69318;BME280;56457;52.190;4.440;2022-12-07T04:41:22;101878.25;;;6.78;100.00
69318;BME280;56457;52.190;4.440;2022-12-07T04:42:27;101871.38;;;6.81;100.00
69318;BME280;56457;52.190;4.440;2022-12-07T04:43:27;101871.22;;;6.75;100.00
69318;BME280;56457;52.190;4.440;2022-12-07T04:44:28;101871.19;;;6.73;100.00
69318;BME280;56457;52.190;4.440;2022-12-07T04:45:28;101855.38;;;6.66;100.00
69318;BME280;56457;52.190;4.440;2022-12-07T04:46:30;101862.25;;;6.64;100.00
69318;BME280;56457;52.190;4.440;2022-12-07T04:47:31;101858.84;;;6.65;100.00
69318;BME280;56457;52.190;4.440;2022-12-07T04:48:31;101861.38;;;6.63;100.00
69318;BME280;56457;52.190;4.440;2022-12-07T04:49:31;101856.22;;;6.65;100.00
69318;BME280;56457;52.190;4.440;2022-12-07T04:50:32;101853.53;;;6.62;100.00
69318;BME280;56457;52.190;4.440;2022-12-07T04:51:32;101858.72;;;6.60;100.00
69318;BME280;56457;52.190;4.440;2022-12-07T04:52:32;101856.00;;;6.57;100.00
69318;BME280;56457;52.190;4.440;2022-12-07T04:53:32;101851.66;;;6.56;100.00
69318;BME280;56457;52.190;4.440;2022-12-07T04:54:33;101856.81;;;6.53;100.00
69318;BME280;56457;52.190;4.440;2022-12-07T04:55:33;101853.38;;;6.56;100.00
69318;BME280;56457;52.190;4.440;2022-12-07T04:56:33;101852.66;;;6.61;100.00
69318;BME280;56457;52.190;4.440;2022-12-07T04:57:35;101849.06;;;6.58;100.00
69318;BME280;56457;52.190;4.440;2022-12-07T04:58:35;101855.16;;;6.58;100.00
69318;BME280;56457;52.190;4.440;2022-12-07T04:59:35;101854.38;;;6.61;100.00
69318;BME280;56457;52.190;4.440;2022-12-07T05:00:35;101850.00;;;6.60;100.00
69318;BME280;56457;52.190;4.440;2022-12-07T05:01:36;101856.22;;;6.65;100.00
69318;BME280;56457;52.190;4.440;2022-12-07T05:02:36;101853.69;;;6.68;100.00
69318;BME280;56457;52.190;4.440;2022-12-07T05:03:37;101848.50;;;6.69;100.00
69318;BME280;56457;52.190;4.440;2022-12-07T05:04:37;101850.34;;;6.73;100.00
69318;BME280;56457;52.190;4.440;2022-12-07T05:05:39;101854.69;;;6.74;100.00
69318;BME280;56457;52.190;4.440;2022-12-07T05:06:40;101847.75;;;6.75;100.00
69318;BME280;56457;52.190;4.440;2022-12-07T05:07:40;101843.53;;;6.80;100.00
69318;BME280;56457;52.190;4.440;2022-12-07T05:08:40;101846.97;;;6.78;100.00
69318;BME280;56457;52.190;4.440;2022-12-07T05:09:41;101850.53;;;6.83;100.00
69318;BME280;56457;52.190;4.440;2022-12-07T05:10:41;101848.06;;;6.87;100.00
69318;BME280;56457;52.190;4.440;2022-12-07T05:11:41;101843.72;;;6.89;100.00
69318;BME280;56457;52.190;4.440;2022-12-07T05:12:42;101837.63;;;6.87;100.00
69318;BME280;56457;52.190;4.440;2022-12-07T05:13:42;101839.56;;;6.96;100.00
69318;BME280;56457;52.190;4.440;2022-12-07T05:14:42;101840.53;;;7.01;100.00
69318;BME280;56457;52.190;4.440;2022-12-07T05:15:42;101828.38;;;7.01;100.00
69318;BME280;56457;52.190;4.440;2022-12-07T05:16:44;101841.38;;;7.00;100.00
69318;BME280;56457;52.190;4.440;2022-12-07T05:17:44;101841.47;;;7.03;100.00
69318;BME280;56457;52.190;4.440;2022-12-07T05:18:45;101834.50;;;7.02;100.00
69318;BME280;56457;52.190;4.440;2022-12-07T05:19:45;101842.25;;;6.99;100.00
69318;BME280;56457;52.190;4.440;2022-12-07T05:20:45;101837.09;;;7.02;100.00
69318;BME280;56457;52.190;4.440;2022-12-07T05:21:46;101846.75;;;7.06;100.00
69318;BME280;56457;52.190;4.440;2022-12-07T05:22:46;101835.44;;;7.06;100.00
69318;BME280;56457;52.190;4.440;2022-12-07T05:23:47;101844.97;;;7.05;100.00
69318;BME280;56457;52.190;4.440;2022-12-07T05:24:47;101839.75;;;7.04;100.00
69318;BME280;56457;52.190;4.440;2022-12-07T05:25:47;101843.28;;;7.07;100.00
69318;BME280;56457;52.190;4.440;2022-12-07T05:26:48;101836.38;;;7.09;100.00
69318;BME280;56457;52.190;4.440;2022-12-07T05:27:48;101842.50;;;7.10;100.00
69318;BME280;56457;52.190;4.440;2022-12-07T05:28:54;101845.00;;;7.07;100.00
69318;BME280;56457;52.190;4.440;2022-12-07T05:29:55;101844.97;;;7.05;100.00
69318;BME280;56457;52.190;4.440;2022-12-07T05:30:55;101841.53;;;7.06;100.00
69318;BME280;56457;52.190;4.440;2022-12-07T05:31:56;101843.28;;;7.07;100.00
69318;BME280;56457;52.190;4.440;2022-12-07T05:32:56;101841.53;;;7.08;100.00
69318;BME280;56457;52.190;4.440;2022-12-07T05:33:56;101842.38;;;7.05;100.00
69318;BME280;56457;52.190;4.440;2022-12-07T05:34:57;101844.03;;;7.01;100.00
69318;BME280;56457;52.190;4.440;2022-12-07T05:35:57;101849.19;;;6.98;100.00
69318;BME280;56457;52.190;4.440;2022-12-07T05:36:57;101844.09;;;7.05;100.00
69318;BME280;56457;52.190;4.440;2022-12-07T05:37:57;101852.81;;;7.05;100.00
69318;BME280;56457;52.190;4.440;2022-12-07T05:38:58;101849.28;;;7.03;100.00
69318;BME280;56457;52.190;4.440;2022-12-07T05:39:58;101850.19;;;7.04;100.00
69318;BME280;56457;52.190;4.440;2022-12-07T05:41:02;101850.16;;;7.02;100.00
69318;BME280;56457;52.190;4.440;2022-12-07T05:42:03;101843.97;;;6.98;100.00
69318;BME280;56457;52.190;4.440;2022-12-07T05:43:12;101848.34;;;6.99;100.00
69318;BME280;56457;52.190;4.440;2022-12-07T05:44:13;101842.19;;;6.96;100.00
69318;BME280;56457;52.190;4.440;2022-12-07T05:45:13;101845.72;;;6.99;100.00
69318;BME280;56457;52.190;4.440;2022-12-07T05:46:13;101847.44;;;6.97;100.00
69318;BME280;56457;52.190;4.440;2022-12-07T05:47:14;101842.03;;;6.90;100.00
69318;BME280;56457;52.190;4.440;2022-12-07T05:48:14;101846.41;;;6.91;100.00